Big Springs, South Dakota
Current Conditions -  °F | °C
As of 11:35 AM on Friday 19 Dec 2014 (Local Time) from KLRJ Reporting Station
Overcast Overcast  
Wind Chill: 22°   Ceiling: 1300
Heat Index: 32°   Visibility: 10mi
Dew Point: 28°   Wind: 15mph
Humidity: 87%   Direction: 190°S
Pressure: 30.17"   Gusts: NA
Location:  42.9925°N, 96.6362°W
Report Text: KLRJ 191735Z AUTO 19013KT 10SM OVC013 00/M02 A3017 RMK AO2
Loading
Personal Weather Stations






























Interactive Weather Map New forecast layout! Learn more

10-Day Weather Forecast

Advertisements
Track Severe Weather on mobile